Terminal Aerodrome Forecast
Issued by NWS

Home | Current Version | Previous Version | Text Only | Print | Product List | Glossary On
Versions: 1 2 3 4 5 6 7 8 9 10 11 12 13 14 15 16 17 18 19 20 21 22 23 24 25 26 27 28 29 30 31
000
FTUS44 KHGX 301720
TAFIAH
TAF
KIAH 301720Z 3018/3124 09009KT P6SM SCT030 BKN170
     FM302100 09007KT P6SM VCTS SCT050CB BKN120
     FM310100 08004KT P6SM BKN250
     FM310900 35002KT P6SM SCT250
     FM311500 06007KT P6SM SCT030 BKN250 PROB30 3121/3123 SHRA
      BKN040=

USA.gov is the U.S. government's official web portal to all federal, state and local government web resources and services.